Time;durP1;ratioP1;P1;durP2;ratioP2;P2;SDS_P1;SDS_P2;PMS_P1;PMS_P2;Temp;Humidity;BMP_temperature;BMP_pressure;BME280_temperature;BME280_humidity;BME280_pressure;Samples;Min_cycle;Max_cycle;Signal;HPM_P1;HPM_P2
2020/12/03 00:02:00;;;;;;;5.05;2.22;;;20.20;35.40;;;;;;5029123;28;20044;-73
2020/12/03 00:04:28;;;;;;;3.20;2.35;;;19.90;36.10;;;;;;5029259;28;20162;-73
2020/12/03 00:06:58;;;;;;;3.47;2.10;;;19.10;36.80;;;;;;5028742;28;20144;-74
2020/12/03 00:09:26;;;;;;;3.30;2.55;;;18.80;38.00;;;;;;5028913;28;20050;-73
2020/12/03 00:11:57;;;;;;;4.32;2.13;;;18.40;37.50;;;;;;5029224;28;20037;-74
2020/12/03 00:14:24;;;;;;;;;;;17.90;38.70;;;;;;5029529;28;20487;-73
2020/12/03 00:16:52;;;;;;;4.15;2.03;;;17.50;38.90;;;;;;5029003;28;20350;-73
2020/12/03 00:19:22;;;;;;;4.55;2.22;;;17.30;39.90;;;;;;5012771;28;20029;-74
2020/12/03 00:21:55;;;;;;;6.40;2.07;;;17.20;40.40;;;;;;5028887;28;20038;-74
2020/12/03 00:24:29;;;;;;;4.25;2.30;;;16.80;40.30;;;;;;5027996;28;20037;-74
2020/12/03 00:26:56;;;;;;;6.20;2.10;;;16.60;40.60;;;;;;5044088;28;20496;-73
2020/12/03 00:29:23;;;;;;;3.60;2.00;;;16.60;41.20;;;;;;5111420;28;20142;-73
2020/12/03 00:31:51;;;;;;;3.95;2.22;;;16.50;41.80;;;;;;5111448;28;20034;-73
2020/12/03 00:34:18;;;;;;;6.15;2.33;;;16.30;41.80;;;;;;5111472;28;20123;-74
2020/12/03 00:36:45;;;;;;;6.60;2.40;;;15.90;42.20;;;;;;5111412;28;20081;-73
2020/12/03 00:39:14;;;;;;;10.27;2.80;;;15.80;42.00;;;;;;5111187;28;20028;-73
2020/12/03 00:41:50;;;;;;;5.15;2.75;;;15.50;42.50;;;;;;5111397;28;20431;-73
2020/12/03 00:44:19;;;;;;;6.38;2.42;;;15.40;42.50;;;;;;5111415;28;20028;-73
2020/12/03 00:46:46;;;;;;;5.90;2.67;;;15.40;43.30;;;;;;5111170;28;20024;-73
2020/12/03 00:49:17;;;;;;;3.88;2.05;;;15.20;43.70;;;;;;5109536;28;20036;-73
2020/12/03 00:51:48;;;;;;;3.53;2.33;;;15.10;43.80;;;;;;5102908;28;20031;-73
2020/12/03 00:54:16;;;;;;;3.50;2.17;;;15.00;44.30;;;;;;5090995;28;20052;-73
2020/12/03 00:56:43;;;;;;;5.13;2.70;;;14.90;44.50;;;;;;5103136;28;20527;-73
2020/12/03 00:59:10;;;;;;;17.35;3.47;;;14.70;44.40;;;;;;5111590;28;20035;-73
2020/12/03 01:01:37;;;;;;;6.00;2.60;;;14.40;44.90;;;;;;5111360;28;20381;-74
2020/12/03 01:04:03;;;;;;;5.22;2.63;;;14.20;45.50;;;;;;5110889;28;20035;-73
2020/12/03 01:06:30;;;;;;;7.28;2.47;;;14.00;45.90;;;;;;5115536;28;20054;-74
2020/12/03 01:08:57;;;;;;;3.63;2.25;;;13.90;45.70;;;;;;5102150;28;20031;-73
2020/12/03 01:11:25;;;;;;;6.38;2.53;;;13.90;45.90;;;;;;5097139;28;20419;-74
2020/12/03 01:13:52;;;;;;;5.25;2.20;;;13.90;45.80;;;;;;5115335;28;20436;-73
2020/12/03 01:16:21;;;;;;;3.35;2.22;;;13.90;45.80;;;;;;5114885;28;20031;-73
2020/12/03 01:18:49;;;;;;;5.80;2.30;;;13.90;46.40;;;;;;5114678;28;20063;-74
2020/12/03 01:21:22;;;;;;;5.00;2.40;;;13.80;47.00;;;;;;5115357;28;20034;-73
2020/12/03 01:23:51;;;;;;;2.97;1.90;;;13.70;47.00;;;;;;5114982;28;20031;-74
2020/12/03 01:26:19;;;;;;;2.75;1.90;;;13.60;47.00;;;;;;5114802;28;20048;-73
2020/12/03 01:28:47;;;;;;;3.83;2.55;;;13.60;47.60;;;;;;5114108;28;20047;-75
2020/12/03 01:31:14;;;;;;;5.63;3.03;;;13.50;47.30;;;;;;5114947;28;20038;-74
2020/12/03 01:33:42;;;;;;;4.05;2.35;;;13.40;47.30;;;;;;5114063;28;20032;-75
2020/12/03 01:36:11;;;;;;;3.95;2.22;;;13.40;47.20;;;;;;5114854;28;20024;-75
2020/12/03 01:38:38;;;;;;;5.15;2.13;;;13.40;47.50;;;;;;5114705;28;20024;-74
2020/12/03 01:41:06;;;;;;;6.63;3.03;;;13.30;47.10;;;;;;5114787;28;20028;-75
2020/12/03 01:43:33;;;;;;;5.03;2.00;;;13.30;47.70;;;;;;5114485;28;20024;-78
2020/12/03 01:46:02;;;;;;;4.45;2.20;;;13.30;48.20;;;;;;5114454;28;20478;-74
2020/12/03 01:48:49;;;;;;;5.10;2.50;;;13.20;47.90;;;;;;5114376;28;20070;-75
2020/12/03 01:51:40;;;;;;;4.88;2.00;;;13.10;47.30;;;;;;5114438;28;20035;-75
2020/12/03 01:54:15;;;;;;;7.97;2.63;;;13.00;48.00;;;;;;5114100;28;20708;-74
2020/12/03 01:57:03;;;;;;;6.35;2.33;;;13.00;47.80;;;;;;5114566;28;20467;-74
2020/12/03 01:59:41;;;;;;;3.78;2.50;;;12.90;48.60;;;;;;5113726;27;20039;-76
2020/12/03 02:02:11;;;;;;;5.07;2.30;;;12.90;48.10;;;;;;5114128;28;20020;-74
2020/12/03 02:04:38;;;;;;;3.53;2.38;;;12.90;48.10;;;;;;5114454;28;20031;-73
2020/12/03 02:07:11;;;;;;;4.28;2.35;;;13.00;47.10;;;;;;5114254;28;20093;-74
2020/12/03 02:09:39;;;;;;;3.55;2.17;;;13.10;47.00;;;;;;5114448;28;20030;-72
2020/12/03 02:12:06;;;;;;;8.30;2.60;;;13.10;47.80;;;;;;5113764;28;20027;-73
2020/12/03 02:14:34;;;;;;;5.85;2.28;;;13.10;47.70;;;;;;5112935;28;20031;-73
2020/12/03 02:17:01;;;;;;;4.30;2.35;;;13.10;47.40;;;;;;5112273;28;20047;-72
2020/12/03 02:19:30;;;;;;;3.78;1.58;;;13.10;47.70;;;;;;5111748;28;20472;-74
2020/12/03 02:22:04;;;;;;;4.80;2.75;;;13.10;47.30;;;;;;5110510;28;20024;-75
2020/12/03 02:24:33;;;;;;;4.22;1.83;;;13.00;48.40;;;;;;5093960;28;20020;-73
2020/12/03 02:27:00;;;;;;;3.35;2.08;;;13.00;48.20;;;;;;5093939;28;20456;-75
2020/12/03 02:29:27;;;;;;;5.57;2.40;;;13.00;47.50;;;;;;5094044;28;20082;-73
2020/12/03 02:31:54;;;;;;;4.38;2.20;;;13.00;48.10;;;;;;5113168;28;20055;-74
2020/12/03 02:34:22;;;;;;;5.18;2.45;;;13.10;47.50;;;;;;5113607;28;20361;-73
2020/12/03 02:37:00;;;;;;;5.95;2.20;;;13.00;47.70;;;;;;5106255;28;20012;-74
2020/12/03 02:39:29;;;;;;;6.63;2.53;;;12.90;47.80;;;;;;5103326;28;20031;-74
2020/12/03 02:41:57;;;;;;;5.93;3.40;;;12.80;47.80;;;;;;5095650;28;20390;-73
2020/12/03 02:44:24;;;;;;;5.78;3.03;;;12.80;48.30;;;;;;5093726;28;20780;-73
2020/12/03 02:46:51;;;;;;;6.75;2.42;;;12.70;48.00;;;;;;5107373;28;20357;-75
2020/12/03 02:49:19;;;;;;;5.55;2.45;;;12.70;47.90;;;;;;5111855;28;20038;-73
2020/12/03 02:51:46;;;;;;;5.32;2.97;;;12.70;47.80;;;;;;5098936;28;20039;-74
2020/12/03 02:54:14;;;;;;;10.35;2.65;;;12.70;47.80;;;;;;5104105;28;20059;-73
2020/12/03 02:56:41;;;;;;;5.57;2.75;;;12.60;47.90;;;;;;5112797;28;20380;-73
2020/12/03 02:59:10;;;;;;;7.00;2.88;;;12.50;48.00;;;;;;5111926;28;20035;-74
2020/12/03 03:01:37;;;;;;;5.88;2.63;;;12.50;48.10;;;;;;5113439;28;20030;-74
2020/12/03 03:04:05;;;;;;;4.38;1.80;;;12.50;47.60;;;;;;5101229;28;20035;-73
2020/12/03 03:06:35;;;;;;;4.20;2.20;;;12.50;47.60;;;;;;5104891;28;20031;-74
2020/12/03 03:09:06;;;;;;;4.43;2.35;;;12.60;47.20;;;;;;5101926;28;20118;-73
2020/12/03 03:11:34;;;;;;;6.97;2.42;;;12.60;47.60;;;;;;5092334;28;20040;-73
2020/12/03 03:14:02;;;;;;;10.90;2.22;;;12.50;47.30;;;;;;5102945;28;20384;-74
2020/12/03 03:16:31;;;;;;;6.63;1.80;;;12.50;47.30;;;;;;5104457;28;20028;-73
2020/12/03 03:18:58;;;;;;;4.40;2.00;;;12.40;47.30;;;;;;5093595;28;20040;-73
2020/12/03 03:21:25;;;;;;;3.75;1.52;;;12.40;47.60;;;;;;5099762;28;20026;-74
2020/12/03 03:23:52;;;;;;;2.35;1.55;;;12.40;48.20;;;;;;5113003;28;20050;-72
2020/12/03 03:26:20;;;;;;;3.70;1.60;;;12.40;48.60;;;;;;5109945;28;20087;-72
2020/12/03 03:28:47;;;;;;;3.33;1.83;;;12.60;49.40;;;;;;5110427;28;20395;-72
2020/12/03 03:31:15;;;;;;;2.47;1.45;;;12.60;49.20;;;;;;5113259;28;20027;-74
2020/12/03 03:33:42;;;;;;;3.22;1.40;;;12.60;49.20;;;;;;5108049;28;20047;-74
2020/12/03 03:36:09;;;;;;;2.75;1.33;;;12.60;49.70;;;;;;5094123;28;20491;-74
2020/12/03 03:38:36;;;;;;;2.25;1.10;;;12.50;49.70;;;;;;5112727;28;20032;-74
2020/12/03 03:41:05;;;;;;;3.10;1.17;;;12.60;50.60;;;;;;5111049;28;20031;-74
2020/12/03 03:43:32;;;;;;;4.32;1.30;;;12.60;50.40;;;;;;5106317;28;20484;-74
2020/12/03 03:45:59;;;;;;;3.63;1.42;;;12.60;51.50;;;;;;5092476;28;20031;-74
2020/12/03 03:48:26;;;;;;;4.93;2.47;;;12.60;51.40;;;;;;5110243;28;20039;-74
2020/12/03 03:50:53;;;;;;;2.88;1.75;;;12.70;52.10;;;;;;5110952;28;20502;-74
2020/12/03 03:53:20;;;;;;;6.85;1.75;;;12.60;52.30;;;;;;5112505;28;20050;-74
2020/12/03 03:55:47;;;;;;;2.47;1.52;;;12.60;51.90;;;;;;5111774;28;20046;-75
2020/12/03 03:58:16;;;;;;;29.98;19.67;;;12.60;52.00;;;;;;5111916;28;20043;-75
2020/12/03 04:00:46;;;;;;;15.00;8.27;;;12.50;52.00;;;;;;5110769;28;20032;-73
2020/12/03 04:03:15;;;;;;;10.57;3.67;;;12.50;52.50;;;;;;5112536;28;20486;-74
2020/12/03 04:05:44;;;;;;;7.60;4.28;;;12.50;52.40;;;;;;5099220;28;20032;-74
2020/12/03 04:08:13;;;;;;;11.98;4.43;;;12.50;53.00;;;;;;5101082;28;20031;-73
2020/12/03 04:10:42;;;;;;;6.10;3.10;;;12.50;52.70;;;;;;5109853;28;20034;-73
2020/12/03 04:13:09;;;;;;;5.22;2.75;;;12.40;53.30;;;;;;5112277;28;20340;-73
2020/12/03 04:15:36;;;;;;;8.18;3.15;;;12.50;53.60;;;;;;5110565;28;20032;-74
2020/12/03 04:18:04;;;;;;;5.32;2.60;;;12.40;53.90;;;;;;5110929;28;20042;-73
2020/12/03 04:20:31;;;;;;;4.90;2.55;;;12.50;54.10;;;;;;5103110;28;20039;-73
2020/12/03 04:22:58;;;;;;;9.00;2.55;;;12.50;53.90;;;;;;5093127;28;20035;-73
2020/12/03 04:25:28;;;;;;;4.20;2.22;;;12.50;53.80;;;;;;5098618;28;20479;-74
2020/12/03 04:27:55;;;;;;;3.58;1.85;;;12.50;53.10;;;;;;5111324;28;20039;-73
2020/12/03 04:30:22;;;;;;;5.07;1.90;;;12.50;52.50;;;;;;5091593;28;20017;-73
2020/12/03 04:32:49;;;;;;;4.07;1.70;;;12.50;52.60;;;;;;5092765;28;20035;-73
2020/12/03 04:35:18;;;;;;;2.20;1.48;;;12.50;52.00;;;;;;5091852;28;20020;-73
2020/12/03 04:37:46;;;;;;;2.22;1.35;;;12.50;50.70;;;;;;5099800;28;20050;-72
2020/12/03 04:40:25;;;;;;;2.70;1.40;;;12.60;50.10;;;;;;5113698;28;20039;-72
2020/12/03 04:42:53;;;;;;;2.55;1.10;;;12.60;50.60;;;;;;5113002;28;20027;-73
2020/12/03 04:45:44;;;;;;;4.40;1.10;;;12.80;48.50;;;;;;5116359;28;20028;-73
2020/12/03 04:48:27;;;;;;;2.80;0.88;;;13.00;47.50;;;;;;5114547;28;20051;-72
2020/12/03 04:51:12;;;;;;;3.50;1.27;;;13.10;46.60;;;;;;5115849;28;20035;-73
2020/12/03 04:54:17;;;;;;;6.53;1.30;;;13.10;46.40;;;;;;5112454;28;20039;-72
2020/12/03 04:56:56;;;;;;;1.52;1.02;;;13.00;46.30;;;;;;5116036;28;20043;-73
2020/12/03 04:59:44;;;;;;;4.53;1.23;;;12.90;46.00;;;;;;5111948;28;20039;-73
2020/12/03 05:02:31;;;;;;;2.75;1.30;;;12.80;46.20;;;;;;5114092;28;20019;-72
2020/12/03 05:05:19;;;;;;;2.05;0.65;;;12.60;46.80;;;;;;5032938;28;20049;-73
2020/12/03 05:07:52;;;;;;;1.98;0.90;;;12.70;44.90;;;;;;5032059;28;20042;-73
2020/12/03 05:10:40;;;;;;;1.55;0.90;;;12.60;44.90;;;;;;5023836;28;20046;-72
2020/12/03 05:13:21;;;;;;;3.70;0.95;;;12.80;43.30;;;;;;5014228;28;20052;-73
2020/12/03 05:15:51;;;;;;;1.13;0.60;;;12.80;43.60;;;;;;5012811;28;20045;-74
2020/12/03 05:18:56;;;;;;;1.75;0.98;;;12.70;44.10;;;;;;5021845;28;20037;-73
2020/12/03 05:21:28;;;;;;;1.55;0.63;;;12.60;44.00;;;;;;5015012;28;20037;-74
2020/12/03 05:23:55;;;;;;;1.30;0.60;;;12.60;43.80;;;;;;5000649;28;21256;-74
2020/12/03 05:26:25;;;;;;;0.82;0.57;;;12.50;43.00;;;;;;5012809;28;20046;-73
2020/12/03 05:28:57;;;;;;;0.85;0.50;;;12.40;43.80;;;;;;5030316;28;20080;-73
2020/12/03 05:31:34;;;;;;;1.02;0.63;;;12.40;43.90;;;;;;5019342;28;20030;-73
2020/12/03 05:34:10;;;;;;;2.10;0.80;;;12.20;44.20;;;;;;5013933;28;20033;-73
2020/12/03 05:36:57;;;;;;;2.42;0.85;;;12.20;44.50;;;;;;5012627;28;20061;-73
2020/12/03 05:39:31;;;;;;;1.50;0.60;;;12.20;44.10;;;;;;5026271;28;20026;-73
2020/12/03 05:42:03;;;;;;;1.27;0.60;;;12.10;44.50;;;;;;5058234;28;20047;-73
2020/12/03 05:44:43;;;;;;;1.02;0.60;;;12.00;44.70;;;;;;5094704;28;20027;-73
2020/12/03 05:47:26;;;;;;;2.60;0.70;;;12.00;44.70;;;;;;5094666;28;20028;-73
2020/12/03 05:50:02;;;;;;;2.55;0.77;;;12.00;44.50;;;;;;5094723;28;20043;-74
2020/12/03 05:52:30;;;;;;;2.25;0.60;;;12.10;44.20;;;;;;5110911;28;20024;-73
2020/12/03 05:55:09;;;;;;;2.75;0.77;;;12.40;44.10;;;;;;5113176;28;20048;-73
2020/12/03 05:57:40;;;;;;;1.98;0.60;;;12.40;44.50;;;;;;5114968;28;20503;-73
2020/12/03 06:00:25;;;;;;;2.17;0.60;;;12.60;44.40;;;;;;5097931;28;20046;-73
2020/12/03 06:03:16;;;;;;;4.97;1.10;;;12.40;44.80;;;;;;5093961;28;20039;-73
2020/12/03 06:06:18;;;;;;;5.15;1.35;;;12.80;45.30;;;;;;5095414;28;20032;-73
2020/12/03 06:08:52;;;;;;;4.70;0.88;;;13.10;45.00;;;;;;5094071;28;20506;-73
2020/12/03 06:11:44;;;;;;;1.58;0.90;;;13.20;45.10;;;;;;5111279;28;20036;-72
2020/12/03 06:14:51;;;;;;;3.38;1.15;;;13.40;44.70;;;;;;5110888;28;20051;-72
2020/12/03 06:17:27;;;;;;;3.38;1.20;;;13.50;44.70;;;;;;5094106;28;20020;-74
2020/12/03 06:20:26;;;;;;;1.45;0.80;;;13.30;44.90;;;;;;5099944;28;20044;-72
2020/12/03 06:23:11;;;;;;;2.67;0.60;;;13.20;45.20;;;;;;5101734;28;20380;-72
2020/12/03 06:25:51;;;;;;;1.25;0.68;;;13.30;45.40;;;;;;5093287;28;20043;-72
2020/12/03 06:28:55;;;;;;;1.17;0.60;;;13.10;45.50;;;;;;5094006;28;20039;-73
2020/12/03 06:31:42;;;;;;;1.58;0.88;;;13.00;46.00;;;;;;5098763;28;20043;-71
2020/12/03 06:34:46;;;;;;;2.33;0.85;;;12.90;46.30;;;;;;5107805;28;20028;-74
2020/12/03 06:37:30;;;;;;;1.20;0.50;;;12.80;46.60;;;;;;5099305;28;20391;-73
2020/12/03 06:40:14;;;;;;;1.30;0.80;;;13.00;46.30;;;;;;5104409;28;20035;-73
2020/12/03 06:43:18;;;;;;;2.97;1.58;;;12.90;46.50;;;;;;5110647;28;20038;-72
2020/12/03 06:46:01;;;;;;;1.55;1.05;;;12.70;45.20;;;;;;5012787;28;20037;-73
2020/12/03 06:48:55;;;;;;;1.17;0.93;;;12.60;45.20;;;;;;5014832;28;20444;-73
2020/12/03 06:51:43;;;;;;;2.60;1.30;;;12.50;45.30;;;;;;5011121;28;20030;-74
2020/12/03 06:54:36;;;;;;;2.13;1.20;;;12.40;45.80;;;;;;5022886;28;20410;-73
2020/12/03 06:57:25;;;;;;;1.55;1.10;;;12.40;46.30;;;;;;4971685;28;20151;-76
2020/12/03 07:00:19;;;;;;;4.25;1.25;;;12.30;46.60;;;;;;4972165;28;20034;-74
2020/12/03 07:03:04;;;;;;;2.15;1.10;;;12.10;47.00;;;;;;4971594;28;20046;-74
2020/12/03 07:06:02;;;;;;;1.90;0.90;;;12.00;47.10;;;;;;4971956;28;20043;-76
2020/12/03 07:08:32;;;;;;;1.75;1.10;;;11.80;47.40;;;;;;4971617;28;20419;-73
2020/12/03 07:11:08;;;;;;;2.15;1.00;;;11.70;47.70;;;;;;4971026;28;20039;-73
2020/12/03 07:13:59;;;;;;;2.85;1.25;;;11.60;47.70;;;;;;4955147;28;20039;-73
2020/12/03 07:16:45;;;;;;;2.13;1.20;;;11.30;49.20;;;;;;4971635;28;20136;-73
2020/12/03 07:19:27;;;;;;;2.55;1.30;;;11.00;49.80;;;;;;4971708;28;20364;-73
2020/12/03 07:22:00;;;;;;;3.38;1.58;;;10.80;50.20;;;;;;5013354;28;20041;-74
2020/12/03 07:24:30;;;;;;;5.03;1.90;;;10.70;50.90;;;;;;5013956;28;20481;-74
2020/12/03 07:27:09;;;;;;;3.28;1.50;;;10.80;51.50;;;;;;5030735;28;20080;-74
2020/12/03 07:30:05;;;;;;;2.72;1.45;;;10.90;51.30;;;;;;5030220;28;20041;-74
2020/12/03 07:32:39;;;;;;;5.32;2.40;;;10.90;51.40;;;;;;5029516;28;20478;-74
2020/12/03 07:35:18;;;;;;;5.80;1.67;;;10.80;51.00;;;;;;5083936;28;20387;-74
2020/12/03 07:38:10;;;;;;;4.00;1.30;;;10.90;51.10;;;;;;5091815;28;20036;-73
2020/12/03 07:40:37;;;;;;;1.25;0.90;;;10.80;51.30;;;;;;5092092;28;20040;-73
2020/12/03 07:43:23;;;;;;;3.25;0.80;;;11.40;50.80;;;;;;5106422;28;20024;-74
2020/12/03 07:45:51;;;;;;;1.67;0.90;;;12.40;48.70;;;;;;5111957;28;20039;-71
2020/12/03 07:48:21;;;;;;;6.53;1.30;;;12.80;47.70;;;;;;5112674;28;20046;-71
2020/12/03 07:51:08;;;;;;;4.15;1.00;;;13.00;47.00;;;;;;5112836;28;20027;-76
2020/12/03 07:53:36;;;;;;;1.60;0.95;;;13.30;45.80;;;;;;5110868;28;20043;-75
2020/12/03 07:56:32;;;;;;;2.92;0.90;;;13.40;45.20;;;;;;5112094;28;20044;-74
2020/12/03 07:59:23;;;;;;;3.80;1.00;;;13.40;45.10;;;;;;5112653;28;20020;-74
2020/12/03 08:01:52;;;;;;;3.33;0.70;;;13.50;44.80;;;;;;5110618;28;20027;-73
2020/12/03 08:04:20;;;;;;;1.80;0.90;;;13.60;44.70;;;;;;5112503;28;20031;-73
2020/12/03 08:07:03;;;;;;;2.53;1.00;;;13.50;44.90;;;;;;5110192;28;20391;-74
2020/12/03 08:09:41;;;;;;;1.80;0.90;;;13.50;44.70;;;;;;5111409;28;20036;-74
2020/12/03 08:12:14;;;;;;;2.60;0.93;;;13.40;45.00;;;;;;5112178;28;20028;-74
2020/12/03 08:14:58;;;;;;;2.28;0.85;;;13.20;45.40;;;;;;5109960;28;20032;-74
2020/12/03 08:17:25;;;;;;;1.63;0.80;;;13.20;45.50;;;;;;5110079;28;20032;-73
2020/12/03 08:20:05;;;;;;;2.53;1.02;;;13.20;45.20;;;;;;5099443;28;20048;-72
2020/12/03 08:22:40;;;;;;;1.67;0.80;;;13.20;45.10;;;;;;5091928;28;20035;-73
2020/12/03 08:25:25;;;;;;;1.98;0.70;;;13.20;45.20;;;;;;5092919;28;20380;-73
2020/12/03 08:28:04;;;;;;;4.30;0.82;;;13.20;45.30;;;;;;5091725;28;20032;-72
2020/12/03 08:30:47;;;;;;;3.70;1.20;;;13.10;45.40;;;;;;5092024;28;20027;-74
2020/12/03 08:33:31;;;;;;;1.52;0.73;;;13.00;45.30;;;;;;5103874;28;20031;-73
2020/12/03 08:36:02;;;;;;;2.45;0.90;;;13.00;45.40;;;;;;5109692;28;20147;-74
2020/12/03 08:38:33;;;;;;;1.95;0.70;;;13.00;45.00;;;;;;5111844;28;20028;-73
2020/12/03 08:41:05;;;;;;;1.88;0.85;;;13.00;45.10;;;;;;5091941;28;20039;-73
2020/12/03 08:43:41;;;;;;;1.60;0.77;;;12.90;45.60;;;;;;5091202;28;20036;-74
2020/12/03 08:46:24;;;;;;;2.67;0.85;;;12.70;46.50;;;;;;5092278;28;20534;-74
2020/12/03 08:48:52;;;;;;;4.13;0.90;;;12.70;46.70;;;;;;5092649;28;20032;-74
2020/12/03 08:51:19;;;;;;;1.63;1.00;;;12.50;47.90;;;;;;5091747;28;20031;-74
2020/12/03 08:53:49;;;;;;;2.75;1.00;;;12.30;48.40;;;;;;5091092;28;20032;-74
2020/12/03 08:56:16;;;;;;;2.03;1.00;;;12.20;48.50;;;;;;5092342;28;20032;-74
2020/12/03 08:58:51;;;;;;;1.60;0.90;;;11.90;49.30;;;;;;5091131;28;20048;-74
2020/12/03 09:01:21;;;;;;;1.35;0.93;;;11.70;50.10;;;;;;5097668;28;20028;-74
2020/12/03 09:03:48;;;;;;;1.63;0.90;;;11.60;49.90;;;;;;5100294;28;20039;-74
2020/12/03 09:06:16;;;;;;;1.65;1.08;;;11.50;49.90;;;;;;5095263;28;20497;-74
2020/12/03 09:08:43;;;;;;;2.17;1.27;;;11.40;50.30;;;;;;5111016;28;20052;-74
2020/12/03 09:11:10;;;;;;;1.40;0.90;;;11.30;50.60;;;;;;5104978;28;20040;-72
2020/12/03 09:13:37;;;;;;;1.70;0.90;;;11.10;50.70;;;;;;5091430;28;20050;-72
2020/12/03 09:16:08;;;;;;;4.35;1.23;;;11.10;50.80;;;;;;5093235;28;20127;-72
2020/12/03 09:18:41;;;;;;;2.63;1.08;;;11.00;51.40;;;;;;5112017;28;20031;-72
2020/12/03 09:21:17;;;;;;;2.50;1.17;;;10.80;51.70;;;;;;5108805;28;20419;-74
2020/12/03 09:23:49;;;;;;;3.80;1.60;;;10.70;52.60;;;;;;5096376;28;20019;-73
2020/12/03 09:26:26;;;;;;;4.93;1.80;;;10.50;53.10;;;;;;5109901;28;20020;-73
2020/12/03 09:28:54;;;;;;;2.20;1.40;;;10.40;54.10;;;;;;5100502;28;20391;-73
2020/12/03 09:31:23;;;;;;;3.05;1.60;;;10.20;54.70;;;;;;5114507;28;20480;-73
2020/12/03 09:33:52;;;;;;;3.08;1.42;;;10.10;54.20;;;;;;5110784;28;20035;-73
2020/12/03 09:36:20;;;;;;;10.18;2.03;;;10.20;54.20;;;;;;5094021;28;20043;-73
2020/12/03 09:38:48;;;;;;;2.75;1.60;;;10.20;54.20;;;;;;5094998;28;20036;-73
2020/12/03 09:41:24;;;;;;;5.72;2.25;;;10.20;53.90;;;;;;5094397;28;20048;-73
2020/12/03 09:43:54;;;;;;;4.68;2.40;;;10.30;55.70;;;;;;5113187;28;20034;-73
2020/12/03 09:46:25;;;;;;;7.78;3.22;;;10.20;55.60;;;;;;5114695;28;20046;-73
2020/12/03 09:48:55;;;;;;;8.88;4.78;;;10.20;57.00;;;;;;5112899;28;20027;-73
2020/12/03 09:51:24;;;;;;;17.90;5.85;;;10.20;58.70;;;;;;5115114;28;20034;-73
2020/12/03 09:53:52;;;;;;;9.73;5.55;;;10.20;59.70;;;;;;5095522;28;20056;-73
2020/12/03 09:56:20;;;;;;;17.23;6.35;;;10.10;60.50;;;;;;5094335;28;20376;-73
2020/12/03 09:58:57;;;;;;;11.05;5.97;;;10.10;59.30;;;;;;5093678;28;20045;-73
2020/12/03 10:01:48;;;;;;;15.20;5.78;;;10.10;60.40;;;;;;5094449;28;20027;-73
2020/12/03 10:04:43;;;;;;;16.80;6.72;;;10.10;60.70;;;;;;5114353;28;20366;-72
2020/12/03 10:07:34;;;;;;;13.50;6.00;;;10.00;62.10;;;;;;5094352;28;20024;-72
2020/12/03 10:10:13;;;;;;;12.70;5.50;;;9.80;61.30;;;;;;5114446;28;20039;-72
2020/12/03 10:13:06;;;;;;;13.65;5.70;;;9.70;60.80;;;;;;5114326;28;20035;-72
2020/12/03 10:15:45;;;;;;;11.30;6.35;;;9.70;63.70;;;;;;5114145;28;20043;-72
2020/12/03 10:18:21;;;;;;;12.18;5.97;;;9.80;64.20;;;;;;5110950;28;20036;-72
2020/12/03 10:20:52;;;;;;;13.57;6.05;;;9.80;63.20;;;;;;5114488;28;20376;-72
2020/12/03 10:23:33;;;;;;;12.55;5.65;;;9.90;61.90;;;;;;5108915;28;20024;-72
2020/12/03 10:26:35;;;;;;;10.52;4.82;;;9.90;62.50;;;;;;5093761;28;20376;-72
2020/12/03 10:29:24;;;;;;;12.13;5.60;;;10.60;57.70;;;;;;5094997;28;20051;-72
2020/12/03 10:31:52;;;;;;;9.32;4.43;;;10.90;57.00;;;;;;5093403;28;20492;-72
2020/12/03 10:34:19;;;;;;;11.48;4.50;;;11.10;55.20;;;;;;5094204;28;20420;-72
2020/12/03 10:37:00;;;;;;;6.95;3.10;;;11.10;55.50;;;;;;5111436;28;20491;-72
2020/12/03 10:39:49;;;;;;;6.88;3.15;;;11.10;55.30;;;;;;5111618;28;20121;-72
2020/12/03 10:42:19;;;;;;;11.10;3.92;;;10.90;55.70;;;;;;5113930;28;20020;-73
2020/12/03 10:44:48;;;;;;;6.65;3.40;;;10.80;55.80;;;;;;5111503;28;20403;-73
2020/12/03 10:47:20;;;;;;;9.40;3.63;;;10.70;55.70;;;;;;5113744;28;20476;-73
2020/12/03 10:49:47;;;;;;;;;;;10.60;55.90;;;;;;5111564;28;20059;-73
2020/12/03 10:52:15;;;;;;;9.40;4.80;;;10.60;55.10;;;;;;5113907;28;19911;-72
2020/12/03 10:54:42;;;;;;;8.15;3.58;;;10.70;54.80;;;;;;5100261;28;20044;-73
2020/12/03 10:57:23;;;;;;;9.50;4.78;;;10.80;54.80;;;;;;5092767;28;20036;-72
2020/12/03 10:59:53;;;;;;;10.27;4.03;;;10.80;54.40;;;;;;5093640;28;20055;-72
2020/12/03 11:02:27;;;;;;;10.68;4.75;;;10.80;54.90;;;;;;5093193;28;20051;-72
2020/12/03 11:04:55;;;;;;;10.23;4.63;;;10.90;54.80;;;;;;5105517;28;20391;-72
2020/12/03 11:07:22;;;;;;;10.00;4.72;;;11.00;54.50;;;;;;5099055;28;20036;-73
2020/12/03 11:09:54;;;;;;;10.02;4.25;;;11.20;54.10;;;;;;5092306;28;20424;-74
2020/12/03 11:12:22;;;;;;;10.65;5.07;;;11.20;54.10;;;;;;5092241;28;20388;-74
2020/12/03 11:14:50;;;;;;;10.73;4.93;;;11.20;53.60;;;;;;5103221;28;20035;-74
2020/12/03 11:17:23;;;;;;;8.32;4.53;;;11.10;53.50;;;;;;5102363;28;20031;-73
2020/12/03 11:19:56;;;;;;;10.20;5.35;;;11.30;53.20;;;;;;5092186;28;20036;-73
2020/12/03 11:22:41;;;;;;;10.30;4.72;;;11.30;53.40;;;;;;5093843;28;20023;-73
2020/12/03 11:25:12;;;;;;;12.18;4.63;;;11.40;53.30;;;;;;5092788;28;20039;-73
2020/12/03 11:27:45;;;;;;;13.98;5.18;;;11.40;53.00;;;;;;5093552;28;20024;-73
2020/12/03 11:30:23;;;;;;;8.82;4.05;;;11.30;53.30;;;;;;5093615;28;20043;-72
2020/12/03 11:32:52;;;;;;;14.93;5.30;;;11.20;53.60;;;;;;5107866;28;20051;-72
2020/12/03 11:35:33;;;;;;;12.32;5.13;;;11.30;53.60;;;;;;5111548;28;20035;-74
2020/12/03 11:38:03;;;;;;;13.02;5.18;;;11.30;53.80;;;;;;5100011;28;20036;-73
2020/12/03 11:40:43;;;;;;;10.52;4.85;;;11.30;53.50;;;;;;5110948;28;20357;-74
2020/12/03 11:43:38;;;;;;;11.00;4.88;;;11.20;53.70;;;;;;5111169;28;20035;-73
2020/12/03 11:48:50;;;;;;;9.02;4.40;;;11.10;53.70;;;;;;5092361;28;20039;-73
2020/12/03 11:51:36;;;;;;;10.88;5.13;;;11.20;53.60;;;;;;5092387;28;20027;-74
2020/12/03 11:54:06;;;;;;;13.13;5.18;;;11.30;53.10;;;;;;5092184;28;20106;-73
2020/12/03 11:56:35;;;;;;;10.85;4.57;;;11.30;53.00;;;;;;5092546;28;20032;-73
2020/12/03 11:59:16;;;;;;;12.43;4.88;;;11.30;53.30;;;;;;5091883;28;20051;-73
2020/12/03 12:01:53;;;;;;;10.98;4.65;;;11.20;53.20;;;;;;5092806;28;20460;-73
2020/12/03 12:12:26;;;;;;;9.05;3.33;;;11.20;52.40;;;;;;5049618;28;20036;-73
2020/12/03 12:14:53;;;;;;;7.05;3.58;;;11.20;52.40;;;;;;5068200;28;20447;-73
2020/12/03 12:17:21;;;;;;;7.65;3.80;;;11.30;51.80;;;;;;5067712;28;20440;-73
2020/12/03 12:19:51;;;;;;;6.68;3.40;;;11.40;52.00;;;;;;5068482;28;20051;-73
2020/12/03 12:22:18;;;;;;;5.50;3.22;;;11.40;51.70;;;;;;5066915;28;20433;-72
2020/12/03 12:24:46;;;;;;;8.18;3.47;;;11.40;52.00;;;;;;5049406;28;20041;-73
2020/12/03 12:27:16;;;;;;;6.85;3.10;;;11.40;51.30;;;;;;5049376;28;20057;-73
2020/12/03 12:29:43;;;;;;;8.77;3.33;;;11.40;51.50;;;;;;5048779;28;20568;-73
2020/12/03 12:32:10;;;;;;;11.10;3.67;;;11.40;52.00;;;;;;5049122;28;20528;-74
2020/12/03 12:34:37;;;;;;;12.60;4.07;;;11.30;52.00;;;;;;5065649;28;20049;-74
2020/12/03 12:37:04;;;;;;;9.35;4.22;;;11.30;52.60;;;;;;5059304;28;20052;-74
2020/12/03 12:39:31;;;;;;;8.80;3.78;;;11.20;52.30;;;;;;5068422;28;20036;-74
2020/12/03 12:42:02;;;;;;;11.68;4.20;;;11.20;52.20;;;;;;5068563;28;20075;-75
2020/12/03 12:44:29;;;;;;;;;;;11.20;52.80;;;;;;5096321;28;20043;-75
2020/12/03 12:46:57;;;;;;;10.77;3.78;;;11.10;53.00;;;;;;5110212;28;19908;-74
2020/12/03 12:49:25;;;;;;;13.07;4.45;;;11.00;53.70;;;;;;5111933;28;20043;-74
2020/12/03 12:51:52;;;;;;;9.18;4.50;;;10.90;54.40;;;;;;5102851;28;20036;-74
2020/12/03 12:54:21;;;;;;;8.43;4.55;;;10.80;54.30;;;;;;5092749;28;20492;-74
2020/12/03 12:56:49;;;;;;;6.75;4.03;;;10.60;54.40;;;;;;5091243;28;20044;-74
2020/12/03 12:59:16;;;;;;;8.20;3.83;;;10.70;54.80;;;;;;5092231;28;20032;-73
2020/12/03 13:01:47;;;;;;;12.30;4.80;;;10.50;55.00;;;;;;5094461;28;20056;-74
2020/12/03 13:04:18;;;;;;;7.85;4.03;;;10.50;55.00;;;;;;5096408;28;20371;-74
2020/12/03 13:06:45;;;;;;;9.60;3.85;;;10.40;55.20;;;;;;5095486;28;20047;-74
2020/12/03 13:09:12;;;;;;;7.43;3.28;;;10.40;54.90;;;;;;5100767;28;20039;-74
2020/12/03 13:11:41;;;;;;;6.63;3.10;;;10.30;54.70;;;;;;5116003;28;20024;-73
2020/12/03 13:14:10;;;;;;;13.20;4.47;;;10.40;55.10;;;;;;5114082;28;20019;-73
2020/12/03 13:16:38;;;;;;;6.40;3.67;;;10.20;55.50;;;;;;5114719;28;20046;-74
2020/12/03 13:19:08;;;;;;;32.88;5.10;;;10.30;55.30;;;;;;5110799;28;20032;-73
2020/12/03 13:21:37;;;;;;;8.88;3.17;;;10.30;55.40;;;;;;5095377;28;20024;-74
2020/12/03 13:24:05;;;;;;;10.68;3.30;;;10.30;55.50;;;;;;5096207;28;20031;-73
2020/12/03 13:26:32;;;;;;;5.47;3.10;;;10.20;55.50;;;;;;5094468;28;20067;-73
2020/12/03 13:28:59;;;;;;;5.97;2.88;;;10.40;55.30;;;;;;5099664;28;20024;-75
2020/12/03 13:31:26;;;;;;;6.38;2.90;;;10.50;55.10;;;;;;5115273;28;20031;-73